createdAt,value
2023-01-25T00:01:27.903Z,99296.00
2023-01-25T00:03:54.107Z,99300.00
2023-01-25T00:06:20.508Z,99287.00
2023-01-25T00:08:50.972Z,99289.00
2023-01-25T00:11:17.558Z,99306.00
2023-01-25T00:13:43.737Z,99287.00
2023-01-25T00:16:09.939Z,99290.00
2023-01-25T00:18:36.119Z,99283.00
2023-01-25T00:21:18.770Z,99293.00
2023-01-25T00:23:45.122Z,99280.00
2023-01-25T00:26:11.953Z,99292.00
2023-01-25T00:28:38.497Z,99290.00
2023-01-25T00:31:06.888Z,99280.00
2023-01-25T00:33:43.129Z,99286.00
2023-01-25T00:36:40.412Z,99281.00
2023-01-25T00:39:11.489Z,99281.00
2023-01-25T00:41:38.749Z,99277.00
2023-01-25T00:44:05.617Z,99282.00
2023-01-25T00:46:31.905Z,99268.00
2023-01-25T00:48:58.184Z,99276.00
2023-01-25T00:51:25.024Z,99268.00
2023-01-25T00:53:51.810Z,99265.00
2023-01-25T00:56:18.203Z,99268.00
2023-01-25T00:58:44.376Z,99271.00
2023-01-25T01:01:11.668Z,99255.00
2023-01-25T01:03:38.432Z,99245.00
2023-01-25T01:06:11.580Z,99260.00
2023-01-25T01:08:41.989Z,99254.00
2023-01-25T01:11:11.156Z,99240.00
2023-01-25T01:13:38.629Z,99255.00
2023-01-25T01:16:10.427Z,99252.00
2023-01-25T01:18:43.236Z,99269.00
2023-01-25T01:21:11.769Z,99244.00
2023-01-25T01:23:38.896Z,99244.00
2023-01-25T01:26:08.868Z,99240.00
2023-01-25T01:28:38.666Z,99246.00
2023-01-25T01:31:09.824Z,99253.00
2023-01-25T01:33:38.931Z,99249.00
2023-01-25T01:36:15.144Z,99261.00
2023-01-25T01:38:42.827Z,99259.00
2023-01-25T01:41:10.354Z,99252.00
2023-01-25T01:43:37.662Z,99245.00
2023-01-25T01:46:20.955Z,99246.00
2023-01-25T01:49:21.452Z,99266.00
2023-01-25T01:51:51.868Z,99254.00
2023-01-25T01:54:56.017Z,99261.00
2023-01-25T01:57:31.392Z,99251.00
2023-01-25T02:00:11.170Z,99250.00
2023-01-25T02:02:41.911Z,99231.00
2023-01-25T02:05:22.822Z,99247.00
2023-01-25T02:07:52.924Z,99257.00
2023-01-25T02:10:21.330Z,99232.00
2023-01-25T02:12:48.645Z,99232.00
2023-01-25T02:15:14.978Z,99239.00
2023-01-25T02:17:42.061Z,99239.00
2023-01-25T02:20:24.769Z,99236.00
2023-01-25T02:23:13.635Z,99232.00
2023-01-25T02:25:41.616Z,99216.00
2023-01-25T02:28:29.371Z,99232.00
2023-01-25T02:30:55.803Z,99227.00
2023-01-25T02:33:25.576Z,99238.00
2023-01-25T02:36:06.559Z,99253.00
2023-01-25T02:38:41.662Z,99238.00
2023-01-25T02:41:32.392Z,99237.00
2023-01-25T02:44:05.543Z,99222.00
2023-01-25T02:46:36.660Z,99219.00
2023-01-25T02:49:06.006Z,99225.00
2023-01-25T02:51:35.288Z,99224.00
2023-01-25T02:54:05.067Z,99224.00
2023-01-25T02:56:31.742Z,99215.00
2023-01-25T02:58:58.027Z,99222.00
2023-01-25T03:01:24.749Z,99220.00
2023-01-25T03:03:51.145Z,99218.00
2023-01-25T03:06:18.581Z,99209.00
2023-01-25T03:08:44.984Z,99210.00
2023-01-25T03:11:12.764Z,99214.00
2023-01-25T03:13:39.015Z,99213.00
2023-01-25T03:16:09.996Z,99211.00
2023-01-25T03:18:39.247Z,99210.00
2023-01-25T03:21:17.118Z,99214.00
2023-01-25T03:23:46.795Z,99223.00
2023-01-25T03:26:22.194Z,99212.00
2023-01-25T03:29:08.625Z,99200.00
2023-01-25T03:31:38.120Z,99211.00
2023-01-25T03:34:04.553Z,99197.00
2023-01-25T03:36:34.963Z,99194.00
2023-01-25T03:39:02.334Z,99194.00
2023-01-25T03:41:28.747Z,99190.00
2023-01-25T03:43:58.224Z,99184.00
2023-01-25T03:46:24.768Z,99191.00
2023-01-25T03:48:51.148Z,99175.00
2023-01-25T03:51:17.409Z,99182.00
2023-01-25T03:53:43.561Z,99206.00
2023-01-25T03:56:19.339Z,99189.00
2023-01-25T03:58:59.622Z,99188.00
2023-01-25T04:01:26.604Z,99187.00
2023-01-25T04:03:53.337Z,99186.00
2023-01-25T04:06:19.562Z,99174.00
2023-01-25T04:08:45.863Z,99160.00
2023-01-25T04:11:12.951Z,99164.00
2023-01-25T04:13:40.460Z,99168.00
2023-01-25T04:16:13.044Z,99166.00
2023-01-25T04:19:14.260Z,99166.00
2023-01-25T04:21:40.449Z,99157.00
2023-01-25T04:24:07.334Z,99152.00
2023-01-25T04:26:36.987Z,99141.00
2023-01-25T04:29:03.547Z,99139.00
2023-01-25T04:31:30.178Z,99145.00
2023-01-25T04:33:57.508Z,99145.00
2023-01-25T04:36:23.665Z,99136.00
2023-01-25T04:38:50.462Z,99141.00
2023-01-25T04:41:16.662Z,99136.00
2023-01-25T04:43:44.201Z,99139.00
2023-01-25T04:46:10.574Z,99134.00
2023-01-25T04:48:37.183Z,99127.00
2023-01-25T04:51:05.804Z,99143.00
2023-01-25T04:53:33.464Z,99118.00
2023-01-25T04:56:01.183Z,99121.00
2023-01-25T04:58:31.672Z,99125.00
2023-01-25T05:01:02.848Z,99134.00
2023-01-25T05:03:29.595Z,99122.00
2023-01-25T05:05:55.959Z,99099.00
2023-01-25T05:08:25.442Z,99118.00
2023-01-25T05:10:54.118Z,99106.00
2023-01-25T05:13:40.435Z,99114.00
2023-01-25T05:16:17.742Z,99119.00
2023-01-25T05:18:48.948Z,99107.00
2023-01-25T05:21:45.957Z,99107.00
2023-01-25T05:24:13.300Z,99110.00
2023-01-25T05:26:57.795Z,99100.00
2023-01-25T05:29:27.298Z,99096.00
2023-01-25T05:32:28.024Z,99114.00
2023-01-25T05:34:55.282Z,99102.00
2023-01-25T05:37:22.160Z,99107.00
2023-01-25T05:39:55.722Z,99101.00
2023-01-25T05:42:22.745Z,99104.00
2023-01-25T05:44:48.995Z,99108.00
2023-01-25T05:47:17.730Z,99113.00
2023-01-25T05:49:44.358Z,99101.00
2023-01-25T05:52:17.130Z,99105.00
2023-01-25T05:54:44.218Z,99101.00
2023-01-25T05:57:14.325Z,99094.00
2023-01-25T05:59:41.285Z,99115.00
2023-01-25T06:02:09.727Z,99109.00
2023-01-25T06:04:36.892Z,99097.00
2023-01-25T06:07:03.320Z,99092.00
2023-01-25T06:09:29.487Z,99097.00
2023-01-25T06:11:55.737Z,99102.00
2023-01-25T06:14:23.097Z,99090.00
2023-01-25T06:16:49.269Z,99093.00
2023-01-25T06:19:33.782Z,99079.00
2023-01-25T06:22:16.067Z,99098.00
2023-01-25T06:24:42.281Z,99096.00
2023-01-25T06:27:08.480Z,99103.00
2023-01-25T06:29:35.008Z,99101.00
2023-01-25T06:32:01.295Z,99111.00
2023-01-25T06:34:27.475Z,99095.00
2023-01-25T06:36:53.701Z,99094.00
2023-01-25T06:39:20.096Z,99090.00
2023-01-25T06:41:46.806Z,99095.00
2023-01-25T06:44:12.956Z,99100.00
2023-01-25T06:46:39.134Z,99101.00
2023-01-25T06:49:05.444Z,99085.00
2023-01-25T06:51:31.796Z,99100.00
2023-01-25T06:54:03.634Z,99088.00
2023-01-25T06:56:31.823Z,99085.00
2023-01-25T06:58:58.338Z,99090.00
2023-01-25T07:01:26.634Z,99083.00
2023-01-25T07:03:56.046Z,99092.00
2023-01-25T07:06:24.235Z,99082.00
2023-01-25T07:08:50.477Z,99088.00
2023-01-25T07:11:18.151Z,99087.00
2023-01-25T07:13:46.440Z,99102.00
2023-01-25T07:16:19.129Z,99096.00
2023-01-25T07:18:46.021Z,99090.00
2023-01-25T07:21:16.127Z,99086.00
2023-01-25T07:23:42.809Z,99097.00
2023-01-25T07:26:33.137Z,99087.00
2023-01-25T07:28:59.961Z,99099.00
2023-01-25T07:31:26.907Z,99088.00
2023-01-25T07:33:56.233Z,99097.00
2023-01-25T07:36:22.586Z,99093.00
2023-01-25T07:38:53.931Z,99086.00
2023-01-25T07:41:21.189Z,99091.00
2023-01-25T07:43:47.922Z,99095.00
2023-01-25T07:46:22.867Z,99085.00
2023-01-25T07:48:51.678Z,99083.00
2023-01-25T07:51:25.777Z,99087.00
2023-01-25T07:53:54.163Z,99080.00
2023-01-25T07:56:24.204Z,99081.00
2023-01-25T07:58:53.970Z,99077.00
2023-01-25T08:01:23.159Z,99071.00
2023-01-25T08:03:50.232Z,99081.00
2023-01-25T08:06:17.582Z,99085.00
2023-01-25T08:08:48.177Z,99076.00
2023-01-25T08:11:21.760Z,99074.00
2023-01-25T08:13:49.225Z,99095.00
2023-01-25T08:16:18.305Z,99097.00
2023-01-25T08:18:55.174Z,99074.00
2023-01-25T08:21:29.365Z,99083.00
2023-01-25T08:24:01.623Z,99080.00
2023-01-25T08:26:28.249Z,99088.00
2023-01-25T08:28:54.990Z,99083.00
2023-01-25T08:31:25.939Z,99092.00
2023-01-25T08:33:52.633Z,99087.00
2023-01-25T08:36:20.832Z,99090.00
2023-01-25T08:38:47.889Z,99078.00
2023-01-25T08:41:18.636Z,99078.00
2023-01-25T08:43:46.008Z,99071.00
2023-01-25T08:46:17.112Z,99084.00
2023-01-25T08:48:43.485Z,99077.00
2023-01-25T08:51:16.157Z,99070.00
2023-01-25T08:53:43.403Z,99067.00
2023-01-25T08:56:13.473Z,99076.00
2023-01-25T08:58:45.683Z,99055.00
2023-01-25T09:01:15.204Z,99076.00
2023-01-25T09:03:45.094Z,99060.00
2023-01-25T09:06:12.852Z,99060.00
2023-01-25T09:08:39.424Z,99032.00
2023-01-25T09:11:18.722Z,99056.00
2023-01-25T09:13:45.522Z,99047.00
2023-01-25T09:16:27.454Z,99040.00
2023-01-25T09:18:55.668Z,99049.00
2023-01-25T09:21:22.446Z,99041.00
2023-01-25T09:24:04.483Z,99048.00
2023-01-25T09:26:42.919Z,99042.00
2023-01-25T09:29:11.238Z,99042.00
2023-01-25T09:31:39.529Z,99029.00
2023-01-25T09:34:31.995Z,99035.00
2023-01-25T09:36:58.251Z,99034.00
2023-01-25T09:39:24.783Z,99021.00
2023-01-25T09:42:28.000Z,99018.00
2023-01-25T09:45:12.104Z,99027.00
2023-01-25T09:48:04.644Z,99026.00
2023-01-25T09:50:53.847Z,99015.00
2023-01-25T09:53:41.637Z,99017.00
2023-01-25T09:56:32.859Z,99026.00
2023-01-25T09:59:06.165Z,99029.00
2023-01-25T10:01:59.302Z,99005.00
2023-01-25T10:04:33.794Z,99003.00
2023-01-25T10:07:19.173Z,98999.00
2023-01-25T10:10:04.849Z,99006.00
2023-01-25T10:12:37.791Z,99001.00
2023-01-25T10:15:32.149Z,98986.00
2023-01-25T10:18:31.157Z,99006.00
2023-01-25T10:21:03.854Z,98999.00
2023-01-25T10:24:18.453Z,98993.00
2023-01-25T10:26:54.903Z,98982.00
2023-01-25T10:29:27.045Z,98983.00
2023-01-25T10:32:34.522Z,98990.00
2023-01-25T10:35:25.807Z,98983.00
2023-01-25T10:38:10.412Z,98976.00
2023-01-25T10:40:46.347Z,98965.00
2023-01-25T10:43:20.613Z,98962.00
2023-01-25T10:45:48.151Z,98955.00
2023-01-25T10:48:21.781Z,98959.00
2023-01-25T10:50:54.787Z,98944.00
2023-01-25T10:53:30.963Z,98945.00
2023-01-25T10:56:17.302Z,98957.00
2023-01-25T10:58:47.917Z,98944.00
2023-01-25T11:01:38.607Z,98932.00
2023-01-25T11:04:34.425Z,98937.00
2023-01-25T11:07:05.029Z,98923.00
2023-01-25T11:09:38.141Z,98917.00
2023-01-25T11:12:17.761Z,98921.00
2023-01-25T11:14:45.767Z,98911.00
2023-01-25T11:17:30.689Z,98926.00
2023-01-25T11:20:14.391Z,98921.00
2023-01-25T11:22:54.633Z,98910.00
2023-01-25T11:25:33.959Z,98924.00
2023-01-25T11:28:23.915Z,98915.00
2023-01-25T11:30:53.519Z,98893.00
2023-01-25T11:33:21.631Z,98900.00
2023-01-25T11:36:19.520Z,98888.00
2023-01-25T11:39:15.067Z,98908.00
2023-01-25T11:41:52.068Z,98889.00
2023-01-25T11:45:01.007Z,98882.00
2023-01-25T11:47:51.735Z,98895.00
2023-01-25T11:50:41.585Z,98879.00
2023-01-25T11:53:50.376Z,98869.00
2023-01-25T11:56:58.847Z,98869.00
2023-01-25T12:00:17.707Z,98861.00
2023-01-25T12:03:36.372Z,98835.00
2023-01-25T12:06:22.798Z,98851.00
2023-01-25T12:09:12.738Z,98853.00
2023-01-25T12:12:05.557Z,98826.00
2023-01-25T12:15:07.531Z,98816.00
2023-01-25T12:17:57.339Z,98822.00
2023-01-25T12:21:10.478Z,98798.00
2023-01-25T12:23:47.279Z,98792.00
2023-01-25T12:26:38.580Z,98791.00
2023-01-25T12:29:37.121Z,98791.00
2023-01-25T12:32:37.945Z,98782.00
2023-01-25T12:35:22.705Z,98785.00
2023-01-25T12:37:54.709Z,98768.00
2023-01-25T12:40:54.124Z,98778.00
2023-01-25T12:43:41.248Z,98780.00
2023-01-25T12:46:50.645Z,98764.00
2023-01-25T12:49:38.545Z,98749.00
2023-01-25T12:52:27.038Z,98737.00
2023-01-25T12:55:00.547Z,98719.00
2023-01-25T12:57:43.280Z,98728.00
2023-01-25T13:00:48.192Z,98727.00
2023-01-25T13:03:43.214Z,98716.00
2023-01-25T13:06:54.552Z,98707.00
2023-01-25T13:09:44.414Z,98674.00
2023-01-25T13:12:12.063Z,98709.00
2023-01-25T13:14:40.639Z,98698.00
2023-01-25T13:17:42.476Z,98667.00
2023-01-25T13:20:40.657Z,98686.00
2023-01-25T13:23:36.965Z,98683.00
2023-01-25T13:26:21.477Z,98693.00
2023-01-25T13:28:53.576Z,98679.00
2023-01-25T13:31:50.995Z,98682.00
2023-01-25T13:34:38.774Z,98690.00
2023-01-25T13:37:29.673Z,98677.00
2023-01-25T13:40:34.560Z,98652.00
2023-01-25T13:43:17.753Z,98653.00
2023-01-25T13:45:48.782Z,98641.00
2023-01-25T13:48:21.568Z,98655.00
2023-01-25T13:50:53.990Z,98637.00
2023-01-25T13:53:24.274Z,98655.00
2023-01-25T13:55:56.958Z,98641.00
2023-01-25T13:58:37.025Z,98619.00
2023-01-25T14:01:13.646Z,98640.00
2023-01-25T14:03:50.829Z,98637.00
2023-01-25T14:06:21.934Z,98626.00
2023-01-25T14:08:50.127Z,98634.00
2023-01-25T14:11:26.399Z,98626.00
2023-01-25T14:14:19.922Z,98618.00
2023-01-25T14:16:46.401Z,98620.00
2023-01-25T14:19:29.091Z,98617.00
2023-01-25T14:22:21.978Z,98621.00
2023-01-25T14:25:09.935Z,98609.00
2023-01-25T14:27:41.699Z,98615.00
2023-01-25T14:30:22.002Z,98598.00
2023-01-25T14:32:52.113Z,98602.00
2023-01-25T14:35:54.270Z,98614.00
2023-01-25T14:38:40.998Z,98600.00
2023-01-25T14:41:31.999Z,98590.00
2023-01-25T14:44:04.028Z,98584.00
2023-01-25T14:46:36.122Z,98582.00
2023-01-25T14:49:12.383Z,98584.00
2023-01-25T14:52:09.529Z,98573.00
2023-01-25T14:54:50.998Z,98577.00
2023-01-25T14:57:40.012Z,98573.00
2023-01-25T15:00:22.846Z,98571.00
2023-01-25T15:02:56.654Z,98568.00
2023-01-25T15:05:29.949Z,98564.00
2023-01-25T15:08:08.244Z,98573.00
2023-01-25T15:10:57.184Z,98565.00
2023-01-25T15:13:26.921Z,98565.00
2023-01-25T15:16:00.050Z,98569.00
2023-01-25T15:18:50.958Z,98567.00
2023-01-25T15:21:39.840Z,98554.00
2023-01-25T15:24:11.730Z,98574.00
2023-01-25T15:26:39.257Z,98560.00
2023-01-25T15:29:19.490Z,98559.00
2023-01-25T15:31:46.143Z,98558.00
2023-01-25T15:34:21.020Z,98563.00
2023-01-25T15:36:47.790Z,98542.00
2023-01-25T15:39:18.081Z,98555.00
2023-01-25T15:41:45.442Z,98535.00
2023-01-25T15:44:12.410Z,98554.00
2023-01-25T15:46:44.181Z,98546.00
2023-01-25T15:49:20.112Z,98556.00
2023-01-25T15:51:46.529Z,98529.00
2023-01-25T15:54:12.692Z,98536.00
2023-01-25T15:56:42.060Z,98528.00
2023-01-25T15:59:16.554Z,98527.00
2023-01-25T16:01:43.852Z,98530.00
2023-01-25T16:04:14.223Z,98530.00
2023-01-25T16:06:46.378Z,98534.00
2023-01-25T16:09:26.489Z,98515.00
2023-01-25T16:11:59.429Z,98519.00
2023-01-25T16:14:30.807Z,98511.00
2023-01-25T16:17:04.727Z,98510.00
2023-01-25T16:19:32.279Z,98521.00
2023-01-25T16:21:58.901Z,98521.00
2023-01-25T16:24:25.106Z,98530.00
2023-01-25T16:26:55.113Z,98515.00
2023-01-25T16:29:24.641Z,98504.00
2023-01-25T16:31:52.601Z,98522.00
2023-01-25T16:34:20.235Z,98529.00
2023-01-25T16:36:49.692Z,98516.00
2023-01-25T16:39:22.472Z,98527.00
2023-01-25T16:41:49.276Z,98514.00
2023-01-25T16:44:16.538Z,98503.00
2023-01-25T16:46:43.325Z,98509.00
2023-01-25T16:49:25.450Z,98514.00
2023-01-25T16:51:55.961Z,98496.00
2023-01-25T16:54:23.863Z,98494.00
2023-01-25T16:56:51.477Z,98496.00
2023-01-25T16:59:18.938Z,98496.00
2023-01-25T17:01:46.594Z,98497.00
2023-01-25T17:04:13.576Z,98499.00
2023-01-25T17:06:46.546Z,98491.00
2023-01-25T17:09:23.652Z,98508.00
2023-01-25T17:11:51.774Z,98502.00
2023-01-25T17:14:18.772Z,98478.00
2023-01-25T17:16:47.245Z,98488.00
2023-01-25T17:19:16.222Z,98495.00
2023-01-25T17:21:42.426Z,98507.00
2023-01-25T17:24:12.799Z,98502.00
2023-01-25T17:26:39.994Z,98486.00
2023-01-25T17:29:06.131Z,98484.00
2023-01-25T17:31:33.972Z,98503.00
2023-01-25T17:34:04.457Z,98496.00
2023-01-25T17:36:30.749Z,98490.00
2023-01-25T17:39:05.301Z,98488.00
2023-01-25T17:41:32.170Z,98464.00
2023-01-25T17:43:58.460Z,98473.00
2023-01-25T17:46:29.119Z,98484.00
2023-01-25T17:48:56.995Z,98477.00
2023-01-25T17:51:24.966Z,98462.00
2023-01-25T17:53:52.911Z,98469.00
2023-01-25T17:56:19.703Z,98458.00
2023-01-25T17:58:47.631Z,98461.00
2023-01-25T18:01:18.051Z,98450.00
2023-01-25T18:03:46.407Z,98458.00
2023-01-25T18:06:16.473Z,98461.00
2023-01-25T18:08:47.072Z,98460.00
2023-01-25T18:11:19.232Z,98455.00
2023-01-25T18:13:52.405Z,98457.00
2023-01-25T18:16:21.541Z,98451.00
2023-01-25T18:18:50.320Z,98462.00
2023-01-25T18:21:24.376Z,98441.00
2023-01-25T18:23:56.422Z,98452.00
2023-01-25T18:26:30.111Z,98438.00
2023-01-25T18:29:07.275Z,98431.00
2023-01-25T18:31:33.676Z,98426.00
2023-01-25T18:34:05.923Z,98437.00
2023-01-25T18:36:32.038Z,98434.00
2023-01-25T18:38:59.560Z,98410.00
2023-01-25T18:41:25.738Z,98417.00
2023-01-25T18:43:52.341Z,98427.00
2023-01-25T18:46:18.721Z,98441.00
2023-01-25T18:48:46.302Z,98424.00
2023-01-25T18:51:16.906Z,98426.00
2023-01-25T18:53:46.340Z,98422.00
2023-01-25T18:56:19.841Z,98431.00
2023-01-25T18:58:46.985Z,98431.00
2023-01-25T19:01:23.298Z,98448.00
2023-01-25T19:03:51.217Z,98421.00
2023-01-25T19:06:19.519Z,98429.00
2023-01-25T19:08:52.286Z,98421.00
2023-01-25T19:11:21.401Z,98406.00
2023-01-25T19:13:48.704Z,98404.00
2023-01-25T19:16:23.620Z,98418.00
2023-01-25T19:18:53.605Z,98414.00
2023-01-25T19:21:21.039Z,98432.00
2023-01-25T19:23:47.967Z,98415.00
2023-01-25T19:26:17.836Z,98410.00
2023-01-25T19:28:45.860Z,98397.00
2023-01-25T19:31:21.837Z,98392.00
2023-01-25T19:33:54.384Z,98403.00
2023-01-25T19:36:21.037Z,98388.00
2023-01-25T19:38:48.745Z,98398.00
2023-01-25T19:41:19.468Z,98367.00
2023-01-25T19:43:46.718Z,98374.00
2023-01-25T19:46:14.232Z,98377.00
2023-01-25T19:48:41.659Z,98359.00
2023-01-25T19:51:24.195Z,98376.00
2023-01-25T19:53:59.334Z,98386.00
2023-01-25T19:56:28.585Z,98379.00
2023-01-25T19:58:54.735Z,98366.00
2023-01-25T20:01:29.189Z,98344.00
2023-01-25T20:03:57.450Z,98347.00
2023-01-25T20:06:25.514Z,98342.00
2023-01-25T20:08:52.584Z,98342.00
2023-01-25T20:11:34.389Z,98336.00
2023-01-25T20:14:03.760Z,98344.00
2023-01-25T20:16:32.599Z,98326.00
2023-01-25T20:18:59.694Z,98331.00
2023-01-25T20:21:28.119Z,98335.00
2023-01-25T20:23:59.470Z,98324.00
2023-01-25T20:26:31.941Z,98320.00
2023-01-25T20:28:59.490Z,98309.00
2023-01-25T20:31:27.899Z,98317.00
2023-01-25T20:34:00.792Z,98314.00
2023-01-25T20:36:28.960Z,98314.00
2023-01-25T20:38:55.936Z,98305.00
2023-01-25T20:41:22.680Z,98289.00
2023-01-25T20:44:00.982Z,98296.00
2023-01-25T20:46:28.940Z,98284.00
2023-01-25T20:48:55.498Z,98287.00
2023-01-25T20:51:22.312Z,98285.00
2023-01-25T20:53:50.381Z,98286.00
2023-01-25T20:56:18.456Z,98280.00
2023-01-25T20:58:49.545Z,98275.00
2023-01-25T21:01:28.901Z,98271.00
2023-01-25T21:03:57.034Z,98288.00
2023-01-25T21:06:27.583Z,98292.00
2023-01-25T21:08:54.220Z,98279.00
2023-01-25T21:11:22.727Z,98284.00
2023-01-25T21:13:48.925Z,98269.00
2023-01-25T21:16:20.692Z,98274.00
2023-01-25T21:19:00.831Z,98258.00
2023-01-25T21:21:29.909Z,98265.00
2023-01-25T21:23:59.112Z,98257.00
2023-01-25T21:26:32.381Z,98264.00
2023-01-25T21:29:00.872Z,98267.00
2023-01-25T21:31:34.066Z,98267.00
2023-01-25T21:34:01.803Z,98272.00
2023-01-25T21:36:28.177Z,98272.00
2023-01-25T21:38:54.820Z,98248.00
2023-01-25T21:41:25.075Z,98267.00
2023-01-25T21:44:12.939Z,98254.00
2023-01-25T21:46:39.407Z,98261.00
2023-01-25T21:49:27.772Z,98272.00
2023-01-25T21:52:00.972Z,98253.00
2023-01-25T21:54:36.371Z,98253.00
2023-01-25T21:57:08.126Z,98257.00
2023-01-25T21:59:35.967Z,98252.00
2023-01-25T22:02:04.929Z,98245.00
2023-01-25T22:04:35.464Z,98238.00
2023-01-25T22:07:03.753Z,98232.00
2023-01-25T22:09:30.398Z,98218.00
2023-01-25T22:11:56.724Z,98233.00
2023-01-25T22:14:22.950Z,98241.00
2023-01-25T22:16:50.997Z,98232.00
2023-01-25T22:19:17.728Z,98238.00
2023-01-25T22:21:44.487Z,98224.00
2023-01-25T22:24:12.477Z,98223.00
2023-01-25T22:27:21.666Z,98235.00
2023-01-25T22:29:47.925Z,98239.00
2023-01-25T22:32:14.693Z,98233.00
2023-01-25T22:34:43.345Z,98226.00
2023-01-25T22:37:12.736Z,98232.00
2023-01-25T22:39:39.168Z,98225.00
2023-01-25T22:42:05.557Z,98240.00
2023-01-25T22:44:32.285Z,98239.00
2023-01-25T22:46:58.545Z,98232.00
2023-01-25T22:49:25.000Z,98226.00
2023-01-25T22:51:51.171Z,98232.00
2023-01-25T22:54:17.759Z,98231.00
2023-01-25T22:56:47.260Z,98249.00
2023-01-25T22:59:18.520Z,98239.00
2023-01-25T23:01:45.208Z,98235.00
2023-01-25T23:04:11.483Z,98242.00
2023-01-25T23:06:38.165Z,98227.00
2023-01-25T23:09:05.719Z,98237.00
2023-01-25T23:11:36.933Z,98242.00
2023-01-25T23:14:29.776Z,98229.00
2023-01-25T23:17:16.882Z,98237.00
2023-01-25T23:19:44.048Z,98220.00
2023-01-25T23:22:10.934Z,98233.00
2023-01-25T23:24:38.136Z,98223.00
2023-01-25T23:27:04.828Z,98223.00
2023-01-25T23:29:31.442Z,98215.00
2023-01-25T23:31:59.538Z,98215.00
2023-01-25T23:34:26.329Z,98202.00
2023-01-25T23:36:53.708Z,98192.00
2023-01-25T23:39:21.687Z,98193.00
2023-01-25T23:41:53.535Z,98199.00
2023-01-25T23:44:23.418Z,98211.00
2023-01-25T23:46:49.656Z,98193.00
2023-01-25T23:49:16.299Z,98179.00
2023-01-25T23:51:43.082Z,98183.00
2023-01-25T23:54:09.485Z,98182.00
2023-01-25T23:56:35.783Z,98191.00
2023-01-25T23:59:01.936Z,98172.00
